createdAt,value
2018-12-23T00:09:58.000Z,41.016
2018-12-23T00:19:58.000Z,41.099
2018-12-23T00:29:59.000Z,40.976
2018-12-23T00:39:58.000Z,41.175
2018-12-23T00:49:58.000Z,41.291
2018-12-23T00:59:58.000Z,41.373
2018-12-23T01:09:58.000Z,41.443
2018-12-23T01:19:58.000Z,41.483
2018-12-23T01:29:58.000Z,41.587
2018-12-23T01:39:58.000Z,41.584
2018-12-23T01:49:58.000Z,41.625
2018-12-23T01:59:58.000Z,41.674
2018-12-23T02:09:58.000Z,41.747
2018-12-23T02:19:58.000Z,41.755
2018-12-23T02:29:58.000Z,41.794
2018-12-23T02:39:58.000Z,41.684
2018-12-23T02:49:58.000Z,41.864
2018-12-23T02:59:59.000Z,41.862
2018-12-23T03:09:59.000Z,41.837
2018-12-23T03:19:59.000Z,41.877
2018-12-23T03:29:59.000Z,41.812
2018-12-23T03:39:59.000Z,41.831
2018-12-23T03:49:59.000Z,41.935
2018-12-23T03:59:59.000Z,41.943
2018-12-23T04:09:59.000Z,42.016
2018-12-23T04:20:00.000Z,41.949
2018-12-23T04:29:59.000Z,41.989
2018-12-23T04:40:00.000Z,42.062
2018-12-23T04:49:59.000Z,42.027
2018-12-23T04:59:59.000Z,41.919
2018-12-23T05:09:59.000Z,41.799
2018-12-23T05:19:59.000Z,41.701
2018-12-23T05:29:59.000Z,41.454
2018-12-23T05:39:59.000Z,41.214
2018-12-23T05:50:00.000Z,41.183
2018-12-23T05:59:59.000Z,41
2018-12-23T06:10:01.000Z,40.88
2018-12-23T06:19:59.000Z,40.73
2018-12-23T06:29:59.000Z,40.622
2018-12-23T06:39:59.000Z,40.44
2018-12-23T06:50:00.000Z,40.396
2018-12-23T06:59:59.000Z,39.886
2018-12-23T07:09:59.000Z,39.612
2018-12-23T07:19:59.000Z,39.372
2018-12-23T07:29:59.000Z,40.421
2018-12-23T07:40:00.000Z,41.702
2018-12-23T07:50:01.000Z,41.933
2018-12-23T07:59:59.000Z,40.577
2018-12-23T08:10:02.000Z,40.35
2018-12-23T08:19:59.000Z,40.244
2018-12-23T08:29:59.000Z,40.03
2018-12-23T08:39:59.000Z,40.062
2018-12-23T08:50:00.000Z,40.127
2018-12-23T08:59:59.000Z,40.097
2018-12-23T09:09:59.000Z,40.216
2018-12-23T09:19:59.000Z,40.238
2018-12-23T09:30:00.000Z,40.044
2018-12-23T09:39:59.000Z,39.875
2018-12-23T09:49:59.000Z,41.12
2018-12-23T10:00:00.000Z,41.357
2018-12-23T10:09:59.000Z,40.733
2018-12-23T10:19:59.000Z,41.453
2018-12-23T10:29:59.000Z,41.313
2018-12-23T10:39:59.000Z,41.13
2018-12-23T10:50:01.000Z,41
2018-12-23T11:10:00.000Z,40.989
2018-12-23T11:20:00.000Z,40.762
2018-12-23T11:30:02.000Z,40.751
2018-12-23T11:40:00.000Z,40.643
2018-12-23T11:50:00.000Z,40.481
2018-12-23T12:00:00.000Z,40.601
2018-12-23T12:10:00.000Z,40.461
2018-12-23T12:20:00.000Z,40.342
2018-12-23T12:30:01.000Z,40.276
2018-12-23T12:40:01.000Z,40.287
2018-12-23T12:50:00.000Z,40.394
2018-12-23T13:00:00.000Z,40.493
2018-12-23T13:10:00.000Z,40.125
2018-12-23T13:20:00.000Z,40.199
2018-12-23T13:30:00.000Z,40.208
2018-12-23T13:40:00.000Z,40.091
2018-12-23T13:50:00.000Z,40.025
2018-12-23T14:00:00.000Z,40.025
2018-12-23T14:10:01.000Z,39.884
2018-12-23T14:20:00.000Z,39.839
2018-12-23T14:30:00.000Z,39.786
2018-12-23T14:40:00.000Z,39.891
2018-12-23T14:50:00.000Z,39.87
2018-12-23T15:00:00.000Z,39.732
2018-12-23T15:10:00.000Z,39.74
2018-12-23T15:20:00.000Z,39.836
2018-12-23T15:30:00.000Z,39.749
2018-12-23T15:40:00.000Z,39.814
2018-12-23T15:50:00.000Z,39.757
2018-12-23T16:00:01.000Z,39.403
2018-12-23T16:10:02.000Z,39.779
2018-12-23T16:20:00.000Z,39.791
2018-12-23T16:30:00.000Z,39.749
2018-12-23T16:40:00.000Z,39.672
2018-12-23T16:50:00.000Z,39.814
2018-12-23T17:00:00.000Z,39.884
2018-12-23T17:10:00.000Z,40.195
2018-12-23T17:20:00.000Z,40.35
2018-12-23T17:40:00.000Z,40.548
2018-12-23T17:50:00.000Z,40.851
2018-12-23T18:00:00.000Z,40.326
2018-12-23T18:10:02.000Z,40.624
2018-12-23T18:20:00.000Z,40.557
2018-12-23T18:30:03.000Z,40.468
2018-12-23T18:40:00.000Z,40.425
2018-12-23T18:50:00.000Z,40.52
2018-12-23T19:00:01.000Z,40.303
2018-12-23T19:10:00.000Z,40.217
2018-12-23T19:20:01.000Z,40.529
2018-12-23T19:30:01.000Z,40.257
2018-12-23T19:40:01.000Z,40.213
2018-12-23T19:50:01.000Z,40.063
2018-12-23T20:00:03.000Z,40.192
2018-12-23T20:10:01.000Z,40.083
2018-12-23T20:20:01.000Z,39.941
2018-12-23T20:30:02.000Z,39.921
2018-12-23T20:40:01.000Z,39.791
2018-12-23T20:50:01.000Z,39.876
2018-12-23T21:00:01.000Z,39.972
2018-12-23T21:10:01.000Z,39.778
2018-12-23T21:20:01.000Z,39.713
2018-12-23T21:30:01.000Z,39.885
2018-12-23T21:40:01.000Z,39.959
2018-12-23T21:50:02.000Z,39.982
2018-12-23T22:00:01.000Z,39.807
2018-12-23T22:10:01.000Z,39.764
2018-12-23T22:20:02.000Z,39.742
2018-12-23T22:30:02.000Z,39.774
2018-12-23T22:40:02.000Z,39.912
2018-12-23T22:50:01.000Z,40.02
2018-12-23T23:00:03.000Z,39.876
2018-12-23T23:10:01.000Z,40.134
2018-12-23T23:20:01.000Z,39.078
2018-12-23T23:30:01.000Z,38.98
2018-12-23T23:40:01.000Z,39.013
2018-12-23T23:50:01.000Z,39.174
